createdAt,value
2019-06-07T00:02:05.896Z,6.33
2019-06-07T00:04:33.441Z,6.67
2019-06-07T00:07:00.819Z,6.10
2019-06-07T00:09:28.251Z,6.13
2019-06-07T00:11:55.713Z,6.97
2019-06-07T00:14:23.113Z,6.70
2019-06-07T00:16:50.555Z,6.23
2019-06-07T00:19:18.992Z,6.80
2019-06-07T00:22:15.841Z,6.70
2019-06-07T00:24:16.866Z,6.33
2019-06-07T00:26:57.735Z,6.60
2019-06-07T00:29:16.771Z,6.60
2019-06-07T00:31:43.979Z,6.73
2019-06-07T00:34:11.949Z,6.83
2019-06-07T00:36:40.734Z,7.07
2019-06-07T00:39:10.511Z,7.57
2019-06-07T00:41:37.823Z,7.27
2019-06-07T00:44:05.247Z,8.47
2019-06-07T00:46:32.690Z,7.40
2019-06-07T00:49:00.108Z,7.77
2019-06-07T00:51:27.525Z,7.53
2019-06-07T00:53:55.034Z,8.47
2019-06-07T00:56:23.527Z,8.07
2019-06-07T00:59:10.309Z,8.30
2019-06-07T01:01:22.686Z,7.73
2019-06-07T01:03:49.772Z,7.37
2019-06-07T01:06:18.119Z,7.03
2019-06-07T01:08:46.536Z,7.87
2019-06-07T01:11:15.910Z,6.40
2019-06-07T01:13:43.321Z,7.20
2019-06-07T01:16:10.762Z,6.50
2019-06-07T01:18:45.984Z,7.20
2019-06-07T01:21:07.610Z,6.97
2019-06-07T01:24:04.926Z,6.67
2019-06-07T01:26:04.372Z,6.73
2019-06-07T01:28:31.963Z,6.37
2019-06-07T01:30:59.600Z,6.20
2019-06-07T01:33:48.813Z,6.43
2019-06-07T01:35:56.546Z,6.67
2019-06-07T01:38:25.026Z,6.53
2019-06-07T01:40:53.302Z,8.07
2019-06-07T01:43:26.082Z,6.93
2019-06-07T01:45:50.003Z,5.37
2019-06-07T01:48:21.013Z,6.20
2019-06-07T01:50:46.856Z,5.60
2019-06-07T01:53:14.289Z,5.73
2019-06-07T01:55:41.660Z,5.67
2019-06-07T01:58:09.100Z,4.80
2019-06-07T02:00:36.509Z,5.13
2019-06-07T02:03:03.954Z,5.13
2019-06-07T02:05:32.424Z,5.40
2019-06-07T02:07:59.952Z,5.23
2019-06-07T02:10:30.267Z,5.53
2019-06-07T02:12:56.809Z,5.20
2019-06-07T02:15:27.562Z,5.57
2019-06-07T02:17:53.627Z,5.20
2019-06-07T02:20:23.857Z,5.50
2019-06-07T02:22:50.344Z,5.47
2019-06-07T02:25:37.294Z,5.47
2019-06-07T02:27:47.545Z,5.37
2019-06-07T02:32:44.833Z,5.43
2019-06-07T02:35:13.191Z,5.23
2019-06-07T02:37:40.599Z,6.10
2019-06-07T02:40:08.958Z,5.83
2019-06-07T02:42:41.884Z,6.10
2019-06-07T02:45:08.154Z,6.20
2019-06-07T02:47:38.039Z,6.03
2019-06-07T02:50:04.973Z,5.87
2019-06-07T02:52:39.161Z,5.80
2019-06-07T02:55:01.851Z,6.37
2019-06-07T02:57:35.573Z,5.90
2019-06-07T03:00:07.771Z,6.23
2019-06-07T03:02:31.624Z,5.70
2019-06-07T03:04:57.521Z,6.33
2019-06-07T03:07:28.286Z,5.47
2019-06-07T03:09:56.645Z,6.20
2019-06-07T03:12:26.572Z,6.03
2019-06-07T03:14:54.949Z,6.00
2019-06-07T03:17:45.731Z,6.23
2019-06-07T03:20:14.396Z,6.43
2019-06-07T03:22:42.382Z,6.60
2019-06-07T03:25:10.230Z,5.87
2019-06-07T03:27:48.266Z,5.20
2019-06-07T03:30:36.429Z,5.90
2019-06-07T03:32:46.261Z,5.50
2019-06-07T03:35:07.150Z,5.50
2019-06-07T03:37:39.499Z,5.83
2019-06-07T03:40:04.399Z,4.63
2019-06-07T03:42:34.119Z,4.97
2019-06-07T03:45:01.199Z,5.10
2019-06-07T03:47:31.927Z,5.13
2019-06-07T03:49:57.873Z,5.10
2019-06-07T03:52:25.317Z,4.80
2019-06-07T03:54:52.763Z,5.33
2019-06-07T03:57:20.135Z,5.27
2019-06-07T03:59:47.582Z,5.83
2019-06-07T04:02:15.033Z,5.30
2019-06-07T04:04:43.446Z,5.23
2019-06-07T04:07:10.875Z,5.53
2019-06-07T04:09:42.024Z,5.87
2019-06-07T04:12:07.633Z,5.63
2019-06-07T04:14:37.697Z,6.03
2019-06-07T04:17:04.518Z,5.50
2019-06-07T04:19:34.808Z,5.67
2019-06-07T04:22:01.283Z,5.73
2019-06-07T04:24:28.727Z,5.13
2019-06-07T04:26:56.230Z,5.13
2019-06-07T04:29:32.904Z,5.43
2019-06-07T04:31:53.169Z,5.27
2019-06-07T04:34:20.726Z,5.20
2019-06-07T04:36:58.539Z,5.37
2019-06-07T04:39:21.868Z,5.50
2019-06-07T04:41:51.599Z,5.07
2019-06-07T04:44:20.937Z,6.10
2019-06-07T04:46:50.378Z,5.93
2019-06-07T04:49:19.501Z,5.70
2019-06-07T04:51:47.826Z,5.47
2019-06-07T04:54:18.278Z,5.60
2019-06-07T04:56:45.697Z,5.63
2019-06-07T04:59:13.102Z,5.77
2019-06-07T05:01:42.621Z,6.43
2019-06-07T05:04:10.008Z,6.40
2019-06-07T05:06:39.661Z,7.13
2019-06-07T05:09:06.768Z,6.53
2019-06-07T05:11:36.427Z,6.70
2019-06-07T05:14:03.642Z,6.63
2019-06-07T05:16:34.753Z,6.80
2019-06-07T05:19:00.483Z,6.53
2019-06-07T05:21:49.168Z,6.97
2019-06-07T05:24:06.280Z,7.53
2019-06-07T05:26:26.546Z,7.10
2019-06-07T05:28:54.021Z,6.93
2019-06-07T05:31:20.960Z,7.33
2019-06-07T05:33:48.415Z,8.67
2019-06-07T05:36:16.034Z,8.70
2019-06-07T05:38:44.989Z,7.40
2019-06-07T05:41:12.643Z,7.73
2019-06-07T05:43:45.657Z,7.97
2019-06-07T05:46:09.513Z,8.17
2019-06-07T05:48:40.306Z,7.77
2019-06-07T05:51:06.404Z,7.27
2019-06-07T05:53:34.707Z,8.60
2019-06-07T05:56:02.393Z,8.00
2019-06-07T05:58:29.882Z,8.17
2019-06-07T06:01:40.848Z,8.30
2019-06-07T06:03:27.112Z,7.83
2019-06-07T06:05:55.733Z,8.87
2019-06-07T06:08:23.492Z,8.57
2019-06-07T06:10:50.920Z,9.20
2019-06-07T06:13:18.857Z,8.97
2019-06-07T06:16:00.591Z,9.37
2019-06-07T06:18:15.633Z,11.03
2019-06-07T06:21:04.937Z,10.07
2019-06-07T06:23:12.385Z,10.30
2019-06-07T06:25:42.642Z,9.43
2019-06-07T06:28:12.279Z,8.77
2019-06-07T06:30:38.455Z,9.43
2019-06-07T06:33:06.081Z,9.40
2019-06-07T06:35:33.505Z,9.77
2019-06-07T06:38:00.991Z,8.30
2019-06-07T06:40:28.452Z,9.47
2019-06-07T06:42:55.918Z,9.77
2019-06-07T06:45:23.551Z,9.73
2019-06-07T06:47:51.040Z,10.17
2019-06-07T06:50:19.802Z,9.30
2019-06-07T06:52:50.770Z,9.23
2019-06-07T06:55:17.155Z,8.90
2019-06-07T06:57:45.839Z,9.73
2019-06-07T07:00:14.376Z,8.90
2019-06-07T07:03:35.087Z,9.63
2019-06-07T07:05:12.058Z,8.90
2019-06-07T07:07:40.286Z,8.80
2019-06-07T07:10:08.656Z,9.30
2019-06-07T07:12:36.059Z,9.87
2019-06-07T07:15:06.280Z,8.93
2019-06-07T07:17:52.642Z,9.33
2019-06-07T07:20:04.211Z,9.90
2019-06-07T07:22:31.677Z,9.47
2019-06-07T07:24:59.145Z,9.93
2019-06-07T07:27:26.489Z,9.37
2019-06-07T07:30:34.273Z,9.83
2019-06-07T07:32:23.260Z,10.27
2019-06-07T07:34:54.502Z,10.87
2019-06-07T07:37:20.027Z,9.83
2019-06-07T07:39:50.496Z,9.57
2019-06-07T07:42:21.154Z,10.07
2019-06-07T07:44:47.221Z,13.03
2019-06-07T07:47:15.704Z,12.40
2019-06-07T07:49:44.737Z,11.13
2019-06-07T07:52:12.473Z,9.67
2019-06-07T07:54:39.915Z,9.23
2019-06-07T07:57:07.346Z,9.10
2019-06-07T07:59:43.987Z,9.00
2019-06-07T08:02:04.108Z,9.37
2019-06-07T08:05:12.857Z,8.90
2019-06-07T08:07:00.756Z,9.73
2019-06-07T08:09:28.240Z,9.67
2019-06-07T08:12:00.286Z,9.87
2019-06-07T08:14:25.052Z,8.87
2019-06-07T08:16:54.489Z,8.63
2019-06-07T08:19:21.928Z,9.47
2019-06-07T08:21:50.605Z,9.07
2019-06-07T08:24:18.173Z,8.40
2019-06-07T08:27:06.724Z,9.10
2019-06-07T08:29:14.971Z,8.90
2019-06-07T08:31:42.460Z,8.20
2019-06-07T08:34:09.900Z,8.20
2019-06-07T08:36:42.376Z,8.20
2019-06-07T08:39:07.892Z,7.40
2019-06-07T08:41:35.987Z,6.67
2019-06-07T08:44:22.398Z,8.10
2019-06-07T08:46:33.110Z,7.83
2019-06-07T08:49:03.975Z,6.67
2019-06-07T08:51:30.374Z,6.13
2019-06-07T08:54:20.617Z,6.27
2019-06-07T08:56:27.251Z,6.43
2019-06-07T08:58:56.859Z,5.77
2019-06-07T09:01:24.003Z,6.07
2019-06-07T09:03:52.093Z,6.23
2019-06-07T09:07:01.881Z,5.27
2019-06-07T09:08:50.087Z,4.93
2019-06-07T09:11:17.531Z,4.83
2019-06-07T09:13:45.031Z,5.00
2019-06-07T09:16:12.559Z,5.13
2019-06-07T09:18:43.668Z,5.20
2019-06-07T09:21:09.876Z,4.83
2019-06-07T09:23:37.681Z,4.93
2019-06-07T09:26:15.992Z,4.33
2019-06-07T09:28:34.619Z,4.57
2019-06-07T09:31:07.837Z,4.30
2019-06-07T09:33:31.584Z,4.17
2019-06-07T09:36:01.579Z,3.97
2019-06-07T09:38:28.364Z,4.00
2019-06-07T09:40:56.319Z,3.60
2019-06-07T09:44:00.847Z,3.17
2019-06-07T09:45:54.514Z,4.03
2019-06-07T09:49:08.936Z,3.90
2019-06-07T09:50:51.292Z,3.67
2019-06-07T09:53:22.814Z,3.00
2019-06-07T09:55:47.989Z,2.33
2019-06-07T09:58:50.464Z,2.77
2019-06-07T10:00:44.841Z,2.40
2019-06-07T10:03:21.019Z,2.50
2019-06-07T10:05:41.778Z,2.23
2019-06-07T10:08:41.401Z,2.17
2019-06-07T10:10:38.505Z,2.57
2019-06-07T10:13:06.595Z,2.43
2019-06-07T10:15:35.404Z,2.90
2019-06-07T10:18:02.985Z,2.60
2019-06-07T10:20:30.477Z,2.87
2019-06-07T10:22:59.422Z,2.83
2019-06-07T10:25:27.125Z,3.47
2019-06-07T10:27:54.551Z,2.73
2019-06-07T10:30:22.281Z,2.83
2019-06-07T10:32:52.204Z,3.10
2019-06-07T10:35:19.147Z,2.97
2019-06-07T10:37:46.564Z,3.90
2019-06-07T10:40:15.083Z,3.63
2019-06-07T10:42:42.531Z,3.10
2019-06-07T10:45:12.265Z,3.23
2019-06-07T10:47:39.854Z,3.27
2019-06-07T10:50:08.161Z,3.53
2019-06-07T10:52:35.858Z,3.47
2019-06-07T10:55:04.558Z,2.80
2019-06-07T10:57:32.070Z,3.30
2019-06-07T10:59:59.521Z,4.00
2019-06-07T11:02:27.035Z,4.17
2019-06-07T11:04:54.468Z,3.15
2019-06-07T11:07:21.910Z,3.23
2019-06-07T11:10:05.618Z,3.57
2019-06-07T11:12:18.643Z,3.77
2019-06-07T11:14:46.335Z,3.03
2019-06-07T11:17:15.510Z,3.10
2019-06-07T11:19:43.126Z,2.97
2019-06-07T11:22:10.692Z,2.83
2019-06-07T11:24:38.101Z,3.40
2019-06-07T11:27:07.225Z,3.47
2019-06-07T11:29:34.952Z,3.23
2019-06-07T11:32:02.369Z,3.50
2019-06-07T11:34:30.225Z,3.20
2019-06-07T11:36:57.647Z,3.70
2019-06-07T11:39:25.202Z,3.50
2019-06-07T11:41:52.646Z,3.45
2019-06-07T11:44:20.006Z,3.70
2019-06-07T11:46:47.581Z,3.20
2019-06-07T11:49:20.259Z,4.03
2019-06-07T11:51:44.475Z,3.30
2019-06-07T11:54:12.123Z,3.37
2019-06-07T11:56:39.702Z,3.12
2019-06-07T11:59:07.157Z,2.87
2019-06-07T12:01:37.267Z,2.90
2019-06-07T12:04:03.901Z,3.27
2019-06-07T12:06:31.354Z,3.00
2019-06-07T12:08:58.850Z,5.43
2019-06-07T12:11:26.245Z,3.27
2019-06-07T12:13:53.691Z,3.07
2019-06-07T12:16:21.641Z,3.07
2019-06-07T12:18:49.148Z,3.10
2019-06-07T12:21:17.988Z,2.90
2019-06-07T12:23:45.656Z,2.87
2019-06-07T12:26:14.326Z,2.83
2019-06-07T12:28:42.111Z,2.70
2019-06-07T12:31:10.818Z,3.03
2019-06-07T12:33:38.422Z,3.00
2019-06-07T12:36:06.048Z,2.97
2019-06-07T12:38:33.581Z,3.10
2019-06-07T12:41:01.002Z,2.53
2019-06-07T12:43:28.463Z,2.57
2019-06-07T12:45:55.929Z,2.40
2019-06-07T12:48:25.964Z,2.50
2019-06-07T12:50:52.866Z,2.43
2019-06-07T12:53:24.906Z,2.63
2019-06-07T12:55:49.694Z,2.80
2019-06-07T12:58:22.067Z,3.00
2019-06-07T13:00:46.559Z,2.57
2019-06-07T13:03:14.322Z,2.60
2019-06-07T13:05:41.822Z,2.27
2019-06-07T13:08:09.333Z,2.83
2019-06-07T13:10:36.796Z,3.17
2019-06-07T13:13:04.341Z,3.07
2019-06-07T13:15:31.871Z,3.00
2019-06-07T13:17:59.327Z,2.42
2019-06-07T13:20:26.746Z,3.53
2019-06-07T13:22:54.323Z,3.10
2019-06-07T13:25:25.472Z,3.13
2019-06-07T13:27:51.152Z,3.10
2019-06-07T13:30:19.012Z,2.57
2019-06-07T13:32:46.527Z,2.83
2019-06-07T13:35:14.877Z,3.20
2019-06-07T13:37:42.663Z,3.37
2019-06-07T13:40:11.719Z,2.77
2019-06-07T13:42:39.171Z,2.93
2019-06-07T13:45:08.345Z,2.80
2019-06-07T13:47:35.769Z,3.03
2019-06-07T13:50:03.916Z,2.83
2019-06-07T13:52:31.360Z,2.87
2019-06-07T13:55:02.112Z,2.87
2019-06-07T13:57:28.209Z,2.53
2019-06-07T13:59:55.666Z,2.40
2019-06-07T14:02:24.035Z,2.80
2019-06-07T14:04:52.367Z,2.60
2019-06-07T14:07:21.233Z,2.50
2019-06-07T14:09:48.854Z,2.53
2019-06-07T14:12:16.250Z,2.60
2019-06-07T14:14:43.856Z,2.47
2019-06-07T14:17:11.767Z,2.60
2019-06-07T14:19:39.193Z,2.37
2019-06-07T14:22:06.608Z,2.30
2019-06-07T14:24:34.079Z,2.90
2019-06-07T14:27:07.560Z,2.70
2019-06-07T14:29:35.949Z,2.90
2019-06-07T14:32:03.945Z,2.73
2019-06-07T14:34:32.653Z,3.43
2019-06-07T14:37:00.246Z,3.25
2019-06-07T14:39:29.665Z,3.52
2019-06-07T14:42:08.569Z,2.77
2019-06-07T14:44:27.771Z,2.83
2019-06-07T14:46:55.341Z,3.60
2019-06-07T14:49:24.272Z,2.65
2019-06-07T14:51:52.147Z,2.87
2019-06-07T14:54:19.609Z,2.60
2019-06-07T14:56:47.100Z,3.35
2019-06-07T14:59:14.681Z,3.05
2019-06-07T15:01:42.174Z,3.33
2019-06-07T15:04:09.668Z,3.60
2019-06-07T15:06:37.127Z,3.37
2019-06-07T15:09:05.732Z,3.97
2019-06-07T15:11:33.526Z,4.97
2019-06-07T15:14:01.020Z,6.17
2019-06-07T15:16:29.987Z,7.70
2019-06-07T15:18:57.796Z,7.37
2019-06-07T15:21:26.615Z,3.90
2019-06-07T15:23:54.210Z,4.63
2019-06-07T15:26:21.672Z,3.97
2019-06-07T15:28:49.145Z,4.00
2019-06-07T15:31:16.582Z,3.70
2019-06-07T15:33:44.045Z,3.70
2019-06-07T15:36:11.526Z,3.80
2019-06-07T15:38:39.622Z,4.53
2019-06-07T15:41:07.209Z,4.80
2019-06-07T15:43:35.159Z,4.80
2019-06-07T15:46:02.684Z,5.03
2019-06-07T15:48:30.175Z,4.37
2019-06-07T15:50:57.639Z,4.13
2019-06-07T15:53:25.197Z,4.67
2019-06-07T15:55:52.555Z,4.97
2019-06-07T15:58:20.000Z,5.63
2019-06-07T16:00:50.024Z,4.37
2019-06-07T16:03:16.869Z,5.60
2019-06-07T16:05:44.260Z,7.87
2019-06-07T16:08:11.808Z,8.50
2019-06-07T16:10:40.852Z,5.07
2019-06-07T16:13:08.415Z,4.33
2019-06-07T16:15:37.054Z,4.33
2019-06-07T16:18:04.783Z,3.67
2019-06-07T16:20:33.240Z,3.80
2019-06-07T16:23:00.840Z,3.63
2019-06-07T16:25:28.237Z,4.13
2019-06-07T16:27:55.682Z,3.83
2019-06-07T16:30:23.358Z,3.50
2019-06-07T16:32:50.915Z,3.47
2019-06-07T16:35:18.512Z,3.83
2019-06-07T16:37:51.594Z,3.97
2019-06-07T16:40:15.463Z,4.73
2019-06-07T16:42:43.113Z,8.40
2019-06-07T16:45:12.790Z,9.40
2019-06-07T16:47:42.745Z,7.97
2019-06-07T16:50:15.103Z,9.77
2019-06-07T16:52:46.652Z,5.97
2019-06-07T16:55:15.646Z,7.87
2019-06-07T16:57:43.054Z,12.67
2019-06-07T17:00:11.143Z,12.10
2019-06-07T17:02:40.126Z,11.33
2019-06-07T17:05:08.440Z,8.37
2019-06-07T17:07:36.188Z,6.87
2019-06-07T17:10:04.632Z,5.50
2019-06-07T17:12:32.070Z,5.07
2019-06-07T17:14:59.717Z,3.87
2019-06-07T17:17:27.201Z,4.73
2019-06-07T17:19:54.681Z,4.93
2019-06-07T17:22:22.156Z,4.73
2019-06-07T17:24:49.973Z,4.67
2019-06-07T17:27:17.648Z,5.70
2019-06-07T17:29:45.836Z,4.67
2019-06-07T17:32:15.964Z,5.13
2019-06-07T17:34:44.283Z,4.80
2019-06-07T17:37:11.918Z,4.57
2019-06-07T17:39:40.547Z,4.90
2019-06-07T17:42:08.102Z,4.60
2019-06-07T17:44:35.563Z,4.87
2019-06-07T17:47:03.143Z,5.13
2019-06-07T17:49:30.581Z,4.50
2019-06-07T17:51:58.032Z,5.80
2019-06-07T17:54:25.541Z,5.53
2019-06-07T17:56:53.432Z,5.10
2019-06-07T17:59:21.061Z,5.77
2019-06-07T18:02:10.230Z,5.20
2019-06-07T18:04:18.057Z,5.80
2019-06-07T18:06:47.241Z,5.80
2019-06-07T18:09:14.933Z,5.63
2019-06-07T18:11:43.759Z,5.40
2019-06-07T18:14:11.505Z,6.50
2019-06-07T18:16:39.034Z,4.90
2019-06-07T18:19:06.532Z,5.67
2019-06-07T18:21:33.968Z,5.57
2019-06-07T18:24:01.363Z,6.03
2019-06-07T18:26:28.900Z,5.37
2019-06-07T18:28:56.354Z,5.40
2019-06-07T18:31:23.752Z,5.30
2019-06-07T18:33:51.288Z,5.53
2019-06-07T18:36:18.864Z,4.70
2019-06-07T18:38:46.886Z,5.03
2019-06-07T18:41:14.423Z,5.57
2019-06-07T18:43:41.821Z,5.17
2019-06-07T18:46:09.245Z,5.53
2019-06-07T18:48:36.847Z,6.10
2019-06-07T18:51:04.480Z,6.60
2019-06-07T18:53:31.938Z,6.43
2019-06-07T18:55:59.388Z,5.70
2019-06-07T18:58:26.877Z,6.70
2019-06-07T19:00:55.468Z,5.40
2019-06-07T19:03:22.991Z,5.17
2019-06-07T19:05:50.413Z,5.50
2019-06-07T19:08:17.793Z,5.17
2019-06-07T19:10:45.252Z,4.63
2019-06-07T19:13:12.677Z,5.13
2019-06-07T19:15:43.231Z,5.70
2019-06-07T19:18:09.772Z,5.53
2019-06-07T19:20:37.309Z,5.13
2019-06-07T19:23:04.877Z,4.83
2019-06-07T19:25:32.291Z,6.03
2019-06-07T19:28:01.063Z,5.63
2019-06-07T19:30:28.630Z,5.10
2019-06-07T19:32:57.298Z,5.57
2019-06-07T19:35:25.012Z,4.67
2019-06-07T19:37:53.787Z,5.03
2019-06-07T19:40:21.499Z,4.90
2019-06-07T19:42:49.322Z,5.17
2019-06-07T19:45:34.231Z,5.40
2019-06-07T19:47:48.738Z,7.03
2019-06-07T19:50:17.781Z,4.37
2019-06-07T19:52:45.275Z,5.17
2019-06-07T19:55:13.767Z,4.83
2019-06-07T19:57:41.175Z,4.57
2019-06-07T20:00:14.624Z,4.40
2019-06-07T20:02:40.497Z,4.30
2019-06-07T20:05:11.593Z,4.63
2019-06-07T20:07:39.048Z,4.17
2019-06-07T20:10:06.735Z,4.03
2019-06-07T20:12:34.174Z,5.50
2019-06-07T20:15:23.512Z,4.80
2019-06-07T20:17:31.506Z,5.03
2019-06-07T20:20:00.368Z,5.20
2019-06-07T20:22:28.062Z,5.30
2019-06-07T20:24:56.690Z,5.17
2019-06-07T20:27:24.256Z,5.30
2019-06-07T20:29:51.903Z,5.57
2019-06-07T20:32:19.338Z,5.10
2019-06-07T20:34:46.773Z,4.90
2019-06-07T20:37:14.161Z,4.80
2019-06-07T20:39:41.561Z,4.20
2019-06-07T20:42:08.994Z,4.80
2019-06-07T20:44:36.437Z,5.00
2019-06-07T20:47:06.155Z,4.93
2019-06-07T20:49:33.832Z,5.20
2019-06-07T20:52:03.029Z,4.67
2019-06-07T20:54:30.525Z,4.77
2019-06-07T20:56:58.782Z,4.57
2019-06-07T20:59:26.310Z,4.53
2019-06-07T21:01:53.739Z,5.10
2019-06-07T21:04:21.184Z,4.77
2019-06-07T21:06:48.540Z,4.83
2019-06-07T21:09:15.980Z,4.40
2019-06-07T21:11:43.417Z,4.53
2019-06-07T21:14:10.781Z,4.90
2019-06-07T21:16:38.210Z,4.70
2019-06-07T21:19:06.319Z,4.57
2019-06-07T21:21:33.810Z,5.00
2019-06-07T21:24:02.468Z,4.67
2019-06-07T21:26:29.968Z,4.90
2019-06-07T21:28:57.369Z,4.97
2019-06-07T21:31:24.793Z,4.53
2019-06-07T21:33:52.227Z,4.40
2019-06-07T21:36:19.666Z,4.37
2019-06-07T21:38:47.108Z,4.37
2019-06-07T21:41:14.467Z,5.03
2019-06-07T21:43:41.909Z,4.67
2019-06-07T21:46:17.317Z,5.40
2019-06-07T21:48:38.632Z,4.57
2019-06-07T21:51:06.410Z,4.73
2019-06-07T21:53:33.941Z,5.10
2019-06-07T21:56:02.766Z,5.00
2019-06-07T21:58:30.369Z,4.53
2019-06-07T22:01:28.642Z,4.87
2019-06-07T22:03:56.069Z,4.33
2019-06-07T22:06:23.625Z,4.70
2019-06-07T22:08:51.079Z,5.37
2019-06-07T22:11:18.488Z,4.90
2019-06-07T22:13:45.925Z,5.00
2019-06-07T22:16:26.766Z,4.70
2019-06-07T22:18:43.314Z,4.90
2019-06-07T22:21:10.841Z,4.30
2019-06-07T22:23:38.294Z,4.63
2019-06-07T22:26:06.995Z,5.17
2019-06-07T22:28:34.588Z,4.77
2019-06-07T22:31:02.019Z,4.43
2019-06-07T22:33:29.408Z,4.20
2019-06-07T22:35:56.930Z,5.23
2019-06-07T22:38:24.375Z,5.10
2019-06-07T22:40:51.747Z,4.47
2019-06-07T22:43:19.312Z,4.30
2019-06-07T22:45:46.777Z,5.67
2019-06-07T22:48:15.424Z,5.33
2019-06-07T22:50:42.926Z,5.00
2019-06-07T22:53:11.390Z,5.23
2019-06-07T22:55:38.978Z,4.80
2019-06-07T22:58:06.343Z,4.40
2019-06-07T23:00:34.776Z,4.90
2019-06-07T23:03:02.178Z,4.53
2019-06-07T23:05:29.570Z,4.07
2019-06-07T23:07:56.919Z,4.20
2019-06-07T23:10:24.358Z,4.10
2019-06-07T23:12:51.772Z,4.80
2019-06-07T23:15:20.731Z,4.33
2019-06-07T23:17:48.473Z,4.37
2019-06-07T23:20:17.864Z,4.40
2019-06-07T23:22:45.687Z,4.70
2019-06-07T23:25:17.644Z,4.77
2019-06-07T23:27:42.986Z,5.37
2019-06-07T23:30:12.398Z,5.80
2019-06-07T23:32:39.961Z,5.57
2019-06-07T23:35:08.107Z,5.83
2019-06-07T23:37:35.557Z,5.70
2019-06-07T23:40:03.518Z,5.17
2019-06-07T23:42:31.176Z,4.90
2019-06-07T23:44:58.511Z,5.70
2019-06-07T23:47:25.941Z,5.07
2019-06-07T23:49:53.354Z,5.40
2019-06-07T23:52:21.978Z,5.60
2019-06-07T23:54:49.611Z,5.13
2019-06-07T23:57:19.244Z,5.03
2019-06-07T23:59:46.384Z,5.17
